sensor_id;sensor_type;location;lat;lon;timestamp;pressure;altitude;pressure_sealevel;temperature;humidity
21900;BME280;11114;50.658;12.704;2022-11-15T00:00:52;95943.53;;;9.29;71.71
21900;BME280;11114;50.658;12.704;2022-11-15T00:03:38;95943.22;;;9.32;71.53
21900;BME280;11114;50.658;12.704;2022-11-15T00:06:24;95937.88;;;9.34;71.29
21900;BME280;11114;50.658;12.704;2022-11-15T00:09:11;95943.22;;;9.32;71.24
21900;BME280;11114;50.658;12.704;2022-11-15T00:11:56;95940.47;;;9.34;71.44
21900;BME280;11114;50.658;12.704;2022-11-15T00:14:42;95947.63;;;9.32;71.74
21900;BME280;11114;50.658;12.704;2022-11-15T00:17:28;95944.84;;;9.33;71.42
21900;BME280;11114;50.658;12.704;2022-11-15T00:20:15;95944.00;;;9.25;71.70
21900;BME280;11114;50.658;12.704;2022-11-15T00:23:03;95940.88;;;9.21;71.99
21900;BME280;11114;50.658;12.704;2022-11-15T00:25:56;95935.03;;;9.19;72.50
21900;BME280;11114;50.658;12.704;2022-11-15T00:28:43;95932.72;;;9.16;72.09
21900;BME280;11114;50.658;12.704;2022-11-15T00:31:29;95936.28;;;9.15;72.45
21900;BME280;11114;50.658;12.704;2022-11-15T00:34:15;95938.25;;;9.21;72.32
21900;BME280;11114;50.658;12.704;2022-11-15T00:37:01;95941.53;;;9.23;71.91
21900;BME280;11114;50.658;12.704;2022-11-15T00:39:47;95937.66;;;9.27;71.81
21900;BME280;11114;50.658;12.704;2022-11-15T00:42:33;95934.44;;;9.33;71.53
21900;BME280;11114;50.658;12.704;2022-11-15T00:45:19;95931.66;;;9.35;71.40
21900;BME280;11114;50.658;12.704;2022-11-15T00:48:05;95932.31;;;9.37;71.54
21900;BME280;11114;50.658;12.704;2022-11-15T00:50:53;95934.44;;;9.33;71.58
21900;BME280;11114;50.658;12.704;2022-11-15T00:53:39;95930.50;;;9.29;71.78
21900;BME280;11114;50.658;12.704;2022-11-15T00:56:25;95927.06;;;9.29;71.56
21900;BME280;11114;50.658;12.704;2022-11-15T00:59:11;95917.66;;;9.36;71.47
21900;BME280;11114;50.658;12.704;2022-11-15T01:01:57;95919.16;;;9.38;71.48
21900;BME280;11114;50.658;12.704;2022-11-15T01:04:42;95920.13;;;9.37;71.62
21900;BME280;11114;50.658;12.704;2022-11-15T01:07:27;95911.00;;;9.41;71.50
21900;BME280;11114;50.658;12.704;2022-11-15T01:10:13;95916.22;;;9.41;71.49
21900;BME280;11114;50.658;12.704;2022-11-15T01:13:01;95910.53;;;9.46;71.24
21900;BME280;11114;50.658;12.704;2022-11-15T01:15:47;95907.44;;;9.42;71.42
21900;BME280;11114;50.658;12.704;2022-11-15T01:18:33;95911.00;;;9.41;71.34
21900;BME280;11114;50.658;12.704;2022-11-15T01:21:19;95905.47;;;9.36;71.71
21900;BME280;11114;50.658;12.704;2022-11-15T01:24:05;95906.28;;;9.37;71.40
21900;BME280;11114;50.658;12.704;2022-11-15T01:26:52;95902.88;;;9.36;71.90
21900;BME280;11114;50.658;12.704;2022-11-15T01:29:38;95896.34;;;9.40;71.75
21900;BME280;11114;50.658;12.704;2022-11-15T01:32:23;95897.03;;;9.42;71.62
21900;BME280;11114;50.658;12.704;2022-11-15T01:35:10;95886.91;;;9.39;71.69
21900;BME280;11114;50.658;12.704;2022-11-15T01:37:55;95891.00;;;9.42;71.71
21900;BME280;11114;50.658;12.704;2022-11-15T01:40:41;95882.22;;;9.43;71.83
21900;BME280;11114;50.658;12.704;2022-11-15T01:43:30;95879.78;;;9.49;71.75
21900;BME280;11114;50.658;12.704;2022-11-15T01:46:34;95866.44;;;9.52;71.66
21900;BME280;11114;50.658;12.704;2022-11-15T01:49:22;95873.94;;;9.55;71.45
21900;BME280;11114;50.658;12.704;2022-11-15T01:52:15;95877.34;;;9.56;71.52
21900;BME280;11114;50.658;12.704;2022-11-15T01:58:02;95874.91;;;9.46;71.83
21900;BME280;11114;50.658;12.704;2022-11-15T02:00:50;95874.91;;;9.46;71.81
21900;BME280;11114;50.658;12.704;2022-11-15T02:04:02;95873.28;;;9.53;71.95
21900;BME280;11114;50.658;12.704;2022-11-15T02:06:46;95879.81;;;9.57;71.92
21900;BME280;11114;50.658;12.704;2022-11-15T02:09:36;95872.84;;;9.66;71.88
21900;BME280;11114;50.658;12.704;2022-11-15T02:12:21;95876.09;;;9.68;71.64
21900;BME280;11114;50.658;12.704;2022-11-15T02:15:08;95877.88;;;9.67;71.54
21900;BME280;11114;50.658;12.704;2022-11-15T02:21:03;95880.81;;;9.56;71.73
21900;BME280;11114;50.658;12.704;2022-11-15T02:24:11;95881.91;;;9.54;71.95
21900;BME280;11114;50.658;12.704;2022-11-15T02:42:08;95852.75;;;9.50;72.20
21900;BME280;11114;50.658;12.704;2022-11-15T02:45:21;95856.69;;;9.54;71.92
21900;BME280;11114;50.658;12.704;2022-11-15T02:48:09;95851.13;;;9.57;71.62
21900;BME280;11114;50.658;12.704;2022-11-15T02:50:56;95855.38;;;9.58;71.24
21900;BME280;11114;50.658;12.704;2022-11-15T02:53:42;95849.53;;;9.56;71.32
21900;BME280;11114;50.658;12.704;2022-11-15T02:56:27;95844.47;;;9.55;71.22
21900;BME280;11114;50.658;12.704;2022-11-15T03:00:00;95844.94;;;9.50;71.69
21900;BME280;11114;50.658;12.704;2022-11-15T03:05:53;95837.47;;;9.47;71.95
21900;BME280;11114;50.658;12.704;2022-11-15T03:12:30;95826.03;;;9.48;71.83
21900;BME280;11114;50.658;12.704;2022-11-15T03:15:35;95829.78;;;9.46;72.03
21900;BME280;11114;50.658;12.704;2022-11-15T03:18:32;95818.88;;;9.50;71.86
21900;BME280;11114;50.658;12.704;2022-11-15T03:21:19;95824.94;;;9.51;71.66
21900;BME280;11114;50.658;12.704;2022-11-15T03:24:08;95825.56;;;9.53;71.50
21900;BME280;11114;50.658;12.704;2022-11-15T03:26:54;95818.88;;;9.50;71.54
21900;BME280;11114;50.658;12.704;2022-11-15T03:29:45;95817.59;;;9.54;71.59
21900;BME280;11114;50.658;12.704;2022-11-15T03:32:36;95819.53;;;9.52;71.62
21900;BME280;11114;50.658;12.704;2022-11-15T03:35:26;95828.34;;;9.51;71.28
21900;BME280;11114;50.658;12.704;2022-11-15T03:38:21;95821.66;;;9.49;71.49
21900;BME280;11114;50.658;12.704;2022-11-15T03:41:16;95821.81;;;9.47;71.49
21900;BME280;11114;50.658;12.704;2022-11-15T03:44:15;95816.63;;;9.47;71.21
21900;BME280;11114;50.658;12.704;2022-11-15T03:47:25;95825.72;;;9.43;71.69
21900;BME280;11114;50.658;12.704;2022-11-15T03:50:18;95818.56;;;9.45;71.43
21900;BME280;11114;50.658;12.704;2022-11-15T03:53:04;95816.63;;;9.47;71.23
21900;BME280;11114;50.658;12.704;2022-11-15T03:55:50;95817.91;;;9.43;71.35
21900;BME280;11114;50.658;12.704;2022-11-15T03:58:35;95817.41;;;9.40;71.42
21900;BME280;11114;50.658;12.704;2022-11-15T04:01:21;95819.16;;;9.39;71.36
21900;BME280;11114;50.658;12.704;2022-11-15T04:04:06;95829.59;;;9.39;71.37
21900;BME280;11114;50.658;12.704;2022-11-15T04:06:51;95821.63;;;9.41;71.40
21900;BME280;11114;50.658;12.704;2022-11-15T04:09:37;95828.97;;;9.37;71.21
21900;BME280;11114;50.658;12.704;2022-11-15T04:12:48;95816.75;;;9.38;71.15
21900;BME280;11114;50.658;12.704;2022-11-15T04:15:34;95820.97;;;9.39;70.93
21900;BME280;11114;50.658;12.704;2022-11-15T04:18:19;95818.06;;;9.42;70.58
21900;BME280;11114;50.658;12.704;2022-11-15T04:21:05;95820.97;;;9.39;70.76
21900;BME280;11114;50.658;12.704;2022-11-15T04:24:10;95821.78;;;9.39;70.45
21900;BME280;11114;50.658;12.704;2022-11-15T04:26:58;95820.81;;;9.40;70.58
21900;BME280;11114;50.658;12.704;2022-11-15T04:29:43;95819.69;;;9.43;70.13
21900;BME280;11114;50.658;12.704;2022-11-15T04:32:29;95805.81;;;9.34;70.35
21900;BME280;11114;50.658;12.704;2022-11-15T04:35:14;95811.69;;;9.36;70.26
21900;BME280;11114;50.658;12.704;2022-11-15T04:38:00;95809.75;;;9.38;70.28
21900;BME280;11114;50.658;12.704;2022-11-15T04:40:46;95808.44;;;9.42;70.15
21900;BME280;11114;50.658;12.704;2022-11-15T04:43:31;95805.38;;;9.47;69.84
21900;BME280;11114;50.658;12.704;2022-11-15T04:46:17;95814.00;;;9.47;69.61
21900;BME280;11114;50.658;12.704;2022-11-15T04:49:03;95807.66;;;9.42;69.55
21900;BME280;11114;50.658;12.704;2022-11-15T04:51:49;95804.88;;;9.43;69.51
21900;BME280;11114;50.658;12.704;2022-11-15T04:54:34;95803.59;;;9.47;69.30
21900;BME280;11114;50.658;12.704;2022-11-15T04:57:19;95802.28;;;9.51;69.07
21900;BME280;11114;50.658;12.704;2022-11-15T05:00:07;95802.94;;;9.53;68.95
21900;BME280;11114;50.658;12.704;2022-11-15T05:02:53;95803.09;;;9.52;68.96
21900;BME280;11114;50.658;12.704;2022-11-15T05:05:58;95799.00;;;9.49;68.66
21900;BME280;11114;50.658;12.704;2022-11-15T05:08:44;95799.34;;;9.46;68.69
21900;BME280;11114;50.658;12.704;2022-11-15T05:11:29;95796.56;;;9.40;68.69
21900;BME280;11114;50.658;12.704;2022-11-15T05:14:14;95791.53;;;9.38;68.59
21900;BME280;11114;50.658;12.704;2022-11-15T05:17:00;95788.25;;;9.36;68.98
21900;BME280;11114;50.658;12.704;2022-11-15T05:19:46;95784.69;;;9.37;68.70
21900;BME280;11114;50.658;12.704;2022-11-15T05:22:31;95799.47;;;9.37;68.65
21900;BME280;11114;50.658;12.704;2022-11-15T05:25:17;95794.44;;;9.35;68.74
21900;BME280;11114;50.658;12.704;2022-11-15T05:28:03;95789.06;;;9.37;68.79
21900;BME280;11114;50.658;12.704;2022-11-15T05:30:48;95783.84;;;9.37;68.43
21900;BME280;11114;50.658;12.704;2022-11-15T05:33:35;95786.25;;;9.30;68.57
21900;BME280;11114;50.658;12.704;2022-11-15T05:36:38;95780.44;;;9.28;68.60
21900;BME280;11114;50.658;12.704;2022-11-15T05:39:23;95780.09;;;9.31;68.42
21900;BME280;11114;50.658;12.704;2022-11-15T05:42:14;95776.84;;;9.29;68.46
21900;BME280;11114;50.658;12.704;2022-11-15T05:45:01;95774.06;;;9.31;68.27
21900;BME280;11114;50.658;12.704;2022-11-15T05:47:49;95776.31;;;9.26;68.36
21900;BME280;11114;50.658;12.704;2022-11-15T05:50:38;95775.22;;;9.28;68.37
21900;BME280;11114;50.658;12.704;2022-11-15T05:53:25;95782.19;;;9.28;68.43
21900;BME280;11114;50.658;12.704;2022-11-15T05:56:11;95777.81;;;9.28;68.36
21900;BME280;11114;50.658;12.704;2022-11-15T05:58:58;95768.88;;;9.31;68.28
21900;BME280;11114;50.658;12.704;2022-11-15T06:01:44;95783.03;;;9.36;68.10
21900;BME280;11114;50.658;12.704;2022-11-15T06:04:30;95769.69;;;9.39;67.73
21900;BME280;11114;50.658;12.704;2022-11-15T06:07:15;95773.59;;;9.43;67.63
21900;BME280;11114;50.658;12.704;2022-11-15T06:10:01;95770.34;;;9.49;67.43
21900;BME280;11114;50.658;12.704;2022-11-15T06:12:46;95776.06;;;9.53;67.40
21900;BME280;11114;50.658;12.704;2022-11-15T06:15:32;95774.28;;;9.53;67.32
21900;BME280;11114;50.658;12.704;2022-11-15T06:18:19;95765.63;;;9.53;67.39
21900;BME280;11114;50.658;12.704;2022-11-15T06:21:05;95776.53;;;9.48;67.07
21900;BME280;11114;50.658;12.704;2022-11-15T06:23:51;95777.38;;;9.49;67.38
21900;BME280;11114;50.658;12.704;2022-11-15T06:26:36;95774.59;;;9.50;67.15
21900;BME280;11114;50.658;12.704;2022-11-15T06:29:22;95771.00;;;9.51;67.12
21900;BME280;11114;50.658;12.704;2022-11-15T06:32:07;95772.47;;;9.46;67.24
21900;BME280;11114;50.658;12.704;2022-11-15T06:34:52;95776.38;;;9.42;67.36
21900;BME280;11114;50.658;12.704;2022-11-15T06:37:40;95776.69;;;9.39;67.42
21900;BME280;11114;50.658;12.704;2022-11-15T06:40:26;95778.50;;;9.38;67.38
21900;BME280;11114;50.658;12.704;2022-11-15T06:43:11;95785.66;;;9.36;67.37
21900;BME280;11114;50.658;12.704;2022-11-15T06:46:01;95779.78;;;9.34;67.51
21900;BME280;11114;50.658;12.704;2022-11-15T06:48:46;95777.66;;;9.38;67.46
21900;BME280;11114;50.658;12.704;2022-11-15T06:51:32;95777.50;;;9.39;67.45
21900;BME280;11114;50.658;12.704;2022-11-15T06:54:18;95785.00;;;9.42;67.18
21900;BME280;11114;50.658;12.704;2022-11-15T06:57:06;95783.06;;;9.44;67.24
21900;BME280;11114;50.658;12.704;2022-11-15T06:59:52;95779.97;;;9.41;67.40
21900;BME280;11114;50.658;12.704;2022-11-15T07:02:37;95782.22;;;9.44;67.35
21900;BME280;11114;50.658;12.704;2022-11-15T07:05:23;95783.84;;;9.45;67.43
21900;BME280;11114;50.658;12.704;2022-11-15T07:08:08;95784.34;;;9.40;67.42
21900;BME280;11114;50.658;12.704;2022-11-15T07:10:57;95784.50;;;9.39;67.41
21900;BME280;11114;50.658;12.704;2022-11-15T07:13:43;95781.59;;;9.42;67.36
21900;BME280;11114;50.658;12.704;2022-11-15T07:16:28;95787.59;;;9.42;67.36
21900;BME280;11114;50.658;12.704;2022-11-15T07:19:14;95788.09;;;9.46;67.26
21900;BME280;11114;50.658;12.704;2022-11-15T07:21:59;95788.59;;;9.49;67.21
21900;BME280;11114;50.658;12.704;2022-11-15T07:24:45;95792.03;;;9.58;67.19
21900;BME280;11114;50.658;12.704;2022-11-15T07:27:30;95783.75;;;9.62;67.00
21900;BME280;11114;50.658;12.704;2022-11-15T07:30:16;95778.84;;;9.67;66.92
21900;BME280;11114;50.658;12.704;2022-11-15T07:33:01;95777.56;;;9.71;66.95
21900;BME280;11114;50.658;12.704;2022-11-15T07:35:47;95776.09;;;9.77;66.91
21900;BME280;11114;50.658;12.704;2022-11-15T07:38:35;95769.06;;;9.77;66.70
21900;BME280;11114;50.658;12.704;2022-11-15T07:41:26;95767.31;;;9.85;66.86
21900;BME280;11114;50.658;12.704;2022-11-15T07:44:12;95765.00;;;9.90;66.39
21900;BME280;11114;50.658;12.704;2022-11-15T07:46:58;95772.06;;;9.98;66.63
21900;BME280;11114;50.658;12.704;2022-11-15T07:49:44;95775.16;;;10.01;65.98
21900;BME280;11114;50.658;12.704;2022-11-15T07:52:30;95774.97;;;10.11;66.20
21900;BME280;11114;50.658;12.704;2022-11-15T07:55:16;95763.25;;;10.15;66.02
21900;BME280;11114;50.658;12.704;2022-11-15T07:58:06;95768.28;;;10.16;65.82
21900;BME280;11114;50.658;12.704;2022-11-15T08:00:52;95764.19;;;10.22;66.08
21900;BME280;11114;50.658;12.704;2022-11-15T08:03:38;95762.91;;;10.26;65.94
21900;BME280;11114;50.658;12.704;2022-11-15T08:06:23;95762.91;;;10.34;65.90
21900;BME280;11114;50.658;12.704;2022-11-15T08:09:08;95766.13;;;10.36;65.91
21900;BME280;11114;50.658;12.704;2022-11-15T08:11:54;95770.19;;;10.46;65.98
21900;BME280;11114;50.658;12.704;2022-11-15T08:14:40;95768.38;;;10.55;65.49
21900;BME280;11114;50.658;12.704;2022-11-15T08:17:25;95768.53;;;10.61;65.37
21900;BME280;11114;50.658;12.704;2022-11-15T08:20:11;95770.63;;;10.65;65.08
21900;BME280;11114;50.658;12.704;2022-11-15T08:22:57;95767.34;;;10.71;65.21
21900;BME280;11114;50.658;12.704;2022-11-15T08:25:43;95767.81;;;10.75;64.91
21900;BME280;11114;50.658;12.704;2022-11-15T08:28:29;95764.38;;;10.82;64.84
21900;BME280;11114;50.658;12.704;2022-11-15T08:31:17;95753.91;;;10.90;64.66
21900;BME280;11114;50.658;12.704;2022-11-15T08:34:03;95754.84;;;10.97;64.94
21900;BME280;11114;50.658;12.704;2022-11-15T08:36:49;95754.97;;;11.04;64.43
21900;BME280;11114;50.658;12.704;2022-11-15T08:39:34;95747.94;;;11.12;64.17
21900;BME280;11114;50.658;12.704;2022-11-15T08:42:20;95754.09;;;11.19;63.78
21900;BME280;11114;50.658;12.704;2022-11-15T08:45:06;95743.13;;;11.24;63.29
21900;BME280;11114;50.658;12.704;2022-11-15T08:47:52;95743.88;;;11.32;63.04
21900;BME280;11114;50.658;12.704;2022-11-15T08:50:40;95736.03;;;11.40;63.08
21900;BME280;11114;50.658;12.704;2022-11-15T08:53:28;95739.19;;;11.50;62.58
21900;BME280;11114;50.658;12.704;2022-11-15T08:56:14;95743.59;;;11.57;62.96
21900;BME280;11114;50.658;12.704;2022-11-15T08:59:00;95740.13;;;11.65;62.86
21900;BME280;11114;50.658;12.704;2022-11-15T09:01:45;95745.44;;;11.71;63.00
21900;BME280;11114;50.658;12.704;2022-11-15T09:04:31;95737.56;;;11.79;62.60
21900;BME280;11114;50.658;12.704;2022-11-15T09:07:16;95738.28;;;11.88;62.87
21900;BME280;11114;50.658;12.704;2022-11-15T09:10:02;95735.97;;;11.93;62.57
21900;BME280;11114;50.658;12.704;2022-11-15T09:12:48;95737.53;;;12.02;61.95
21900;BME280;11114;50.658;12.704;2022-11-15T09:15:33;95734.84;;;12.10;62.02
21900;BME280;11114;50.658;12.704;2022-11-15T09:18:19;95727.38;;;12.21;62.27
21900;BME280;11114;50.658;12.704;2022-11-15T09:21:08;95734.31;;;12.28;62.06
21900;BME280;11114;50.658;12.704;2022-11-15T09:23:53;95732.63;;;12.35;61.84
21900;BME280;11114;50.658;12.704;2022-11-15T09:26:40;95729.94;;;12.43;61.87
21900;BME280;11114;50.658;12.704;2022-11-15T09:29:25;95729.84;;;12.51;61.57
21900;BME280;11114;50.658;12.704;2022-11-15T09:32:11;95729.56;;;12.61;61.56
21900;BME280;11114;50.658;12.704;2022-11-15T09:34:57;95729.03;;;12.65;61.01
21900;BME280;11114;50.658;12.704;2022-11-15T09:37:42;95722.25;;;12.71;60.98
21900;BME280;11114;50.658;12.704;2022-11-15T09:40:30;95724.97;;;12.77;60.58
21900;BME280;11114;50.658;12.704;2022-11-15T09:43:37;95718.00;;;12.84;59.94
21900;BME280;11114;50.658;12.704;2022-11-15T09:49:41;95716.84;;;13.01;60.46
21900;BME280;11114;50.658;12.704;2022-11-15T09:52:17;95710.50;;;13.10;60.59
21900;BME280;11114;50.658;12.704;2022-11-15T09:54:48;95708.16;;;13.15;59.66
21900;BME280;11114;50.658;12.704;2022-11-15T10:05:23;95689.81;;;13.36;59.29
21900;BME280;11114;50.658;12.704;2022-11-15T10:10:44;95695.56;;;13.46;58.75
21900;BME280;11114;50.658;12.704;2022-11-15T10:13:28;95671.22;;;13.52;58.70
21900;BME280;11114;50.658;12.704;2022-11-15T10:16:08;95682.75;;;13.57;58.67
21900;BME280;11114;50.658;12.704;2022-11-15T10:19:07;95668.72;;;13.65;57.41
21900;BME280;11114;50.658;12.704;2022-11-15T10:24:22;95673.63;;;13.74;58.25
21900;BME280;11114;50.658;12.704;2022-11-15T10:26:50;95670.84;;;13.76;57.30
21900;BME280;11114;50.658;12.704;2022-11-15T10:29:21;95666.19;;;13.78;57.48
21900;BME280;11114;50.658;12.704;2022-11-15T10:31:52;95658.78;;;13.81;57.54
21900;BME280;11114;50.658;12.704;2022-11-15T10:34:21;95657.59;;;13.84;57.65
21900;BME280;11114;50.658;12.704;2022-11-15T10:36:55;95655.81;;;13.91;57.52
21900;BME280;11114;50.658;12.704;2022-11-15T10:39:23;95651.84;;;13.95;56.87
21900;BME280;11114;50.658;12.704;2022-11-15T10:41:50;95652.25;;;13.98;57.36
21900;BME280;11114;50.658;12.704;2022-11-15T10:47:20;95648.66;;;14.05;56.86
21900;BME280;11114;50.658;12.704;2022-11-15T10:49:34;95643.28;;;14.13;56.81
21900;BME280;11114;50.658;12.704;2022-11-15T10:52:18;95631.44;;;14.17;56.67
21900;BME280;11114;50.658;12.704;2022-11-15T10:54:59;95629.84;;;14.23;57.09
21900;BME280;11114;50.658;12.704;2022-11-15T10:57:29;95622.41;;;14.26;56.39
21900;BME280;11114;50.658;12.704;2022-11-15T11:00:06;95622.63;;;14.31;56.39
21900;BME280;11114;50.658;12.704;2022-11-15T11:05:25;95616.63;;;14.44;57.05
21900;BME280;11114;50.658;12.704;2022-11-15T11:10:31;95619.69;;;14.54;56.12
21900;BME280;11114;50.658;12.704;2022-11-15T11:24:14;95600.63;;;14.79;55.04
21900;BME280;11114;50.658;12.704;2022-11-15T11:29:38;95593.97;;;14.89;55.14
21900;BME280;11114;50.658;12.704;2022-11-15T11:32:30;95588.38;;;14.99;54.76
21900;BME280;11114;50.658;12.704;2022-11-15T11:35:22;95585.34;;;15.08;54.99
21900;BME280;11114;50.658;12.704;2022-11-15T11:37:54;95583.53;;;15.15;55.28
21900;BME280;11114;50.658;12.704;2022-11-15T11:40:40;95586.38;;;15.20;54.94
21900;BME280;11114;50.658;12.704;2022-11-15T11:49:11;95569.44;;;15.36;53.32
21900;BME280;11114;50.658;12.704;2022-11-15T11:54:43;95567.84;;;15.54;54.21
21900;BME280;11114;50.658;12.704;2022-11-15T11:57:27;95563.78;;;15.58;53.67
21900;BME280;11114;50.658;12.704;2022-11-15T12:00:04;95558.34;;;15.66;55.30
21900;BME280;11114;50.658;12.704;2022-11-15T12:05:41;95555.69;;;15.79;54.75
21900;BME280;11114;50.658;12.704;2022-11-15T12:08:32;95547.78;;;15.85;53.63
21900;BME280;11114;50.658;12.704;2022-11-15T12:11:15;95548.78;;;15.91;53.82
21900;BME280;11114;50.658;12.704;2022-11-15T12:13:47;95547.75;;;15.98;53.78
21900;BME280;11114;50.658;12.704;2022-11-15T12:16:18;95544.72;;;16.01;53.07
21900;BME280;11114;50.658;12.704;2022-11-15T12:18:52;95535.97;;;16.07;53.73
21900;BME280;11114;50.658;12.704;2022-11-15T12:24:16;95530.47;;;16.22;52.77
21900;BME280;11114;50.658;12.704;2022-11-15T12:27:01;95529.47;;;16.29;52.83
21900;BME280;11114;50.658;12.704;2022-11-15T12:29:51;95522.34;;;16.36;51.99
21900;BME280;11114;50.658;12.704;2022-11-15T12:32:31;95521.50;;;16.42;52.61
21900;BME280;11114;50.658;12.704;2022-11-15T12:35:00;95518.63;;;16.50;52.87
21900;BME280;11114;50.658;12.704;2022-11-15T12:40:32;95501.16;;;16.62;51.28
21900;BME280;11114;50.658;12.704;2022-11-15T12:45:44;95506.13;;;16.83;52.26
21900;BME280;11114;50.658;12.704;2022-11-15T12:59:00;95493.38;;;17.11;49.36
21900;BME280;11114;50.658;12.704;2022-11-15T13:01:52;95488.63;;;17.19;50.53
21900;BME280;11114;50.658;12.704;2022-11-15T13:12:10;95481.56;;;17.44;48.98
21900;BME280;11114;50.658;12.704;2022-11-15T13:14:45;95476.66;;;17.47;49.57
21900;BME280;11114;50.658;12.704;2022-11-15T13:19:53;95479.56;;;17.39;48.25
21900;BME280;11114;50.658;12.704;2022-11-15T13:22:23;95482.44;;;17.38;48.13
21900;BME280;11114;50.658;12.704;2022-11-15T13:30:56;95477.22;;;17.25;48.10
21900;BME280;11114;50.658;12.704;2022-11-15T13:33:30;95468.34;;;17.20;49.13
21900;BME280;11114;50.658;12.704;2022-11-15T13:36:23;95476.09;;;17.15;47.80
21900;BME280;11114;50.658;12.704;2022-11-15T13:39:00;95476.19;;;17.02;48.16
21900;BME280;11114;50.658;12.704;2022-11-15T13:41:31;95480.28;;;16.98;49.19
21900;BME280;11114;50.658;12.704;2022-11-15T13:44:01;95475.84;;;16.92;49.21
21900;BME280;11114;50.658;12.704;2022-11-15T13:46:32;95477.69;;;16.85;48.95
21900;BME280;11114;50.658;12.704;2022-11-15T13:49:02;95471.50;;;16.73;48.46
21900;BME280;11114;50.658;12.704;2022-11-15T13:51:47;95470.41;;;16.56;48.56
21900;BME280;11114;50.658;12.704;2022-11-15T13:54:20;95474.91;;;16.49;49.44
21900;BME280;11114;50.658;12.704;2022-11-15T13:56:54;95472.91;;;16.38;50.18
21900;BME280;11114;50.658;12.704;2022-11-15T13:59:28;95470.09;;;16.33;50.23
21900;BME280;11114;50.658;12.704;2022-11-15T14:02:17;95478.41;;;16.24;49.27
21900;BME280;11114;50.658;12.704;2022-11-15T14:04:53;95472.38;;;16.17;50.48
21900;BME280;11114;50.658;12.704;2022-11-15T14:07:23;95470.38;;;16.06;50.68
21900;BME280;11114;50.658;12.704;2022-11-15T14:09:51;95468.78;;;15.98;50.64
21900;BME280;11114;50.658;12.704;2022-11-15T14:12:31;95462.53;;;15.86;49.88
21900;BME280;11114;50.658;12.704;2022-11-15T14:15:01;95465.97;;;15.80;50.68
21900;BME280;11114;50.658;12.704;2022-11-15T14:19:57;95455.09;;;15.64;51.59
21900;BME280;11114;50.658;12.704;2022-11-15T14:22:29;95451.47;;;15.52;51.56
21900;BME280;11114;50.658;12.704;2022-11-15T14:27:43;95448.44;;;15.36;52.55
21900;BME280;11114;50.658;12.704;2022-11-15T14:30:15;95455.72;;;15.21;52.44
21900;BME280;11114;50.658;12.704;2022-11-15T14:32:48;95445.22;;;15.01;52.88
21900;BME280;11114;50.658;12.704;2022-11-15T14:35:20;95444.59;;;14.93;53.42
21900;BME280;11114;50.658;12.704;2022-11-15T14:37:49;95444.78;;;14.78;53.61
21900;BME280;11114;50.658;12.704;2022-11-15T14:40:21;95448.44;;;14.71;54.11
21900;BME280;11114;50.658;12.704;2022-11-15T14:42:49;95443.75;;;14.60;53.99
21900;BME280;11114;50.658;12.704;2022-11-15T14:45:18;95438.50;;;14.47;54.04
21900;BME280;11114;50.658;12.704;2022-11-15T14:47:45;95443.25;;;14.24;54.28
21900;BME280;11114;50.658;12.704;2022-11-15T14:50:14;95441.19;;;14.13;54.72
21900;BME280;11114;50.658;12.704;2022-11-15T14:52:42;95434.88;;;14.01;54.54
21900;BME280;11114;50.658;12.704;2022-11-15T14:55:31;95426.09;;;13.82;54.78
21900;BME280;11114;50.658;12.704;2022-11-15T14:57:59;95428.47;;;13.70;55.09
21900;BME280;11114;50.658;12.704;2022-11-15T15:00:26;95416.53;;;13.61;55.14
21900;BME280;11114;50.658;12.704;2022-11-15T15:03:01;95424.41;;;13.61;55.08
21900;BME280;11114;50.658;12.704;2022-11-15T15:05:36;95409.41;;;13.49;54.87
21900;BME280;11114;50.658;12.704;2022-11-15T15:08:05;95410.31;;;13.35;55.33
21900;BME280;11114;50.658;12.704;2022-11-15T15:10:35;95408.84;;;13.19;55.85
21900;BME280;11114;50.658;12.704;2022-11-15T15:13:17;95412.41;;;13.12;55.88
21900;BME280;11114;50.658;12.704;2022-11-15T15:15:45;95411.72;;;13.04;56.08
21900;BME280;11114;50.658;12.704;2022-11-15T15:18:13;95414.69;;;12.94;56.50
21900;BME280;11114;50.658;12.704;2022-11-15T15:20:40;95411.53;;;12.84;56.85
21900;BME280;11114;50.658;12.704;2022-11-15T15:23:16;95401.97;;;12.70;57.19
21900;BME280;11114;50.658;12.704;2022-11-15T15:25:44;95404.75;;;12.69;57.18
21900;BME280;11114;50.658;12.704;2022-11-15T15:28:13;95401.97;;;12.70;57.32
21900;BME280;11114;50.658;12.704;2022-11-15T15:30:40;95393.25;;;12.63;57.39
21900;BME280;11114;50.658;12.704;2022-11-15T15:33:07;95395.56;;;12.52;57.73
21900;BME280;11114;50.658;12.704;2022-11-15T15:35:34;95398.38;;;12.50;57.78
21900;BME280;11114;50.658;12.704;2022-11-15T15:38:02;95398.56;;;12.49;57.96
21900;BME280;11114;50.658;12.704;2022-11-15T15:40:32;95385.59;;;12.41;58.06
21900;BME280;11114;50.658;12.704;2022-11-15T15:42:59;95386.34;;;12.35;58.29
21900;BME280;11114;50.658;12.704;2022-11-15T15:45:26;95382.91;;;12.34;58.33
21900;BME280;11114;50.658;12.704;2022-11-15T15:47:54;95383.28;;;12.31;58.57
21900;BME280;11114;50.658;12.704;2022-11-15T15:52:52;95383.41;;;12.24;58.63
21900;BME280;11114;50.658;12.704;2022-11-15T15:55:19;95372.31;;;12.22;58.64
21900;BME280;11114;50.658;12.704;2022-11-15T15:57:47;95372.72;;;12.19;58.84
21900;BME280;11114;50.658;12.704;2022-11-15T16:00:14;95376.88;;;12.13;58.94
21900;BME280;11114;50.658;12.704;2022-11-15T16:02:42;95374.06;;;12.15;59.00
21900;BME280;11114;50.658;12.704;2022-11-15T16:05:10;95368.06;;;12.21;58.77
21900;BME280;11114;50.658;12.704;2022-11-15T16:07:37;95361.28;;;12.26;58.50
21900;BME280;11114;50.658;12.704;2022-11-15T16:12:46;95365.34;;;12.08;58.92
21900;BME280;11114;50.658;12.704;2022-11-15T16:15:13;95361.91;;;12.07;58.95
21900;BME280;11114;50.658;12.704;2022-11-15T16:17:52;95360.88;;;12.02;58.87
21900;BME280;11114;50.658;12.704;2022-11-15T16:20:38;95365.34;;;12.08;58.67